Time;durP1;ratioP1;P1;durP2;ratioP2;P2;SDS_P1;SDS_P2;PMS_P1;PMS_P2;Temp;Humidity;BMP_temperature;BMP_pressure;BME280_temperature;BME280_humidity;BME280_pressure;Samples;Min_cycle;Max_cycle;Signal;HPM_P1;HPM_P2
2021/07/21 00:01:26;;;;;;;20.85;11.52;;;;;;;;;;5009610;28;20317;-69
2021/07/21 00:03:51;;;;;;;21.13;11.52;;;;;;;;;;5007595;28;20030;-69
2021/07/21 00:06:17;;;;;;;21.83;12.07;;;;;;;;;;5008238;28;20026;-69
2021/07/21 00:08:42;;;;;;;20.83;12.23;;;;;;;;;;5009114;28;20287;-70
2021/07/21 00:13:51;;;;;;;19.73;11.70;;;;;;;;;;5015653;28;20117;-69
2021/07/21 00:16:19;;;;;;;20.80;12.18;;;;;;;;;;5007536;28;20610;-69
2021/07/21 00:18:55;;;;;;;19.33;11.60;;;;;;;;;;5011270;28;20033;-69
2021/07/21 00:21:22;;;;;;;20.70;11.82;;;;;;;;;;5001755;28;20018;-68
2021/07/21 00:23:47;;;;;;;18.60;11.57;;;;;;;;;;5005460;28;20108;-69
2021/07/21 00:26:12;;;;;;;19.65;11.90;;;;;;;;;;5009388;28;20144;-69
2021/07/21 00:28:39;;;;;;;21.65;11.65;;;;;;;;;;5007680;28;20034;-69
2021/07/21 00:31:05;;;;;;;21.80;10.98;;;;;;;;;;5011350;28;20040;-69
2021/07/21 00:33:31;;;;;;;19.48;11.85;;;;;;;;;;5018025;28;20025;-69
2021/07/21 00:35:56;;;;;;;20.27;11.60;;;;;;;;;;5023823;28;20068;-70
2021/07/21 00:38:21;;;;;;;23.05;12.23;;;;;;;;;;5024328;28;20476;-69
2021/07/21 00:40:48;;;;;;;23.65;12.63;;;;;;;;;;5024722;28;20032;-69
2021/07/21 00:43:13;;;;;;;19.80;11.60;;;;;;;;;;5022200;28;20491;-69
2021/07/21 00:45:38;;;;;;;18.63;11.48;;;;;;;;;;5011840;28;20018;-70
2021/07/21 00:48:04;;;;;;;20.30;12.27;;;;;;;;;;5012529;28;20048;-68
2021/07/21 00:50:29;;;;;;;22.58;12.13;;;;;;;;;;5011525;28;20080;-68
2021/07/21 00:52:54;;;;;;;19.77;11.70;;;;;;;;;;5012997;28;20017;-70
2021/07/21 00:55:20;;;;;;;19.98;11.73;;;;;;;;;;5023720;28;20025;-69
2021/07/21 00:57:45;;;;;;;18.88;11.63;;;;;;;;;;5011419;28;20417;-68
2021/07/21 01:00:15;;;;;;;21.05;11.60;;;;;;;;;;5010716;28;20385;-68
2021/07/21 01:02:41;;;;;;;20.17;11.63;;;;;;;;;;5016890;28;20224;-68
2021/07/21 01:05:10;;;;;;;18.98;11.68;;;;;;;;;;5022519;28;20022;-69
2021/07/21 01:07:38;;;;;;;21.35;11.88;;;;;;;;;;5027501;28;20129;-69
2021/07/21 01:10:04;;;;;;;22.27;11.30;;;;;;;;;;5017342;28;20029;-69
2021/07/21 01:12:35;;;;;;;17.67;10.75;;;;;;;;;;5011481;28;20076;-69
2021/07/21 01:15:17;;;;;;;17.48;11.05;;;;;;;;;;5010679;28;20089;-69
2021/07/21 01:17:52;;;;;;;16.95;10.85;;;;;;;;;;5010550;28;20099;-68
2021/07/21 01:20:36;;;;;;;20.98;12.50;;;;;;;;;;5005200;28;20070;-70
2021/07/21 01:23:04;;;;;;;21.45;11.15;;;;;;;;;;5010679;28;20044;-68
2021/07/21 01:25:33;;;;;;;20.85;11.68;;;;;;;;;;5016807;28;20536;-68
2021/07/21 01:28:01;;;;;;;19.92;12.18;;;;;;;;;;5017286;28;20140;-68
2021/07/21 01:30:31;;;;;;;20.45;11.38;;;;;;;;;;5009177;28;20025;-69
2021/07/21 01:33:01;;;;;;;21.80;11.27;;;;;;;;;;5010498;28;20042;-69
2021/07/21 01:35:32;;;;;;;19.60;11.15;;;;;;;;;;5012094;28;20034;-69
2021/07/21 01:37:58;;;;;;;22.35;11.27;;;;;;;;;;5016735;28;20030;-69
2021/07/21 01:40:25;;;;;;;17.63;11.30;;;;;;;;;;5011032;28;20025;-69
2021/07/21 01:42:52;;;;;;;21.30;12.15;;;;;;;;;;5017288;28;20045;-70
2021/07/21 01:45:17;;;;;;;21.00;10.95;;;;;;;;;;5018729;28;20018;-70
2021/07/21 01:47:43;;;;;;;18.77;11.18;;;;;;;;;;5010423;28;20442;-69
2021/07/21 01:50:09;;;;;;;21.77;11.70;;;;;;;;;;5014024;28;20049;-69
2021/07/21 01:52:38;;;;;;;19.25;11.05;;;;;;;;;;5020993;28;20401;-69
2021/07/21 01:55:04;;;;;;;20.27;11.73;;;;;;;;;;5015311;28;20055;-69
2021/07/21 01:57:30;;;;;;;21.10;11.63;;;;;;;;;;5010777;28;20497;-69
2021/07/21 01:59:56;;;;;;;20.60;12.02;;;;;;;;;;5003798;28;20049;-69
2021/07/21 02:02:22;;;;;;;20.75;11.32;;;;;;;;;;5009154;28;20842;-70
2021/07/21 02:04:48;;;;;;;20.73;11.52;;;;;;;;;;5009732;28;20116;-70
2021/07/21 02:07:13;;;;;;;20.90;11.20;;;;;;;;;;5012673;28;20122;-68
2021/07/21 02:09:39;;;;;;;17.58;10.77;;;;;;;;;;5017542;28;20038;-68
2021/07/21 02:12:05;;;;;;;20.95;11.40;;;;;;;;;;5020751;28;20033;-68
2021/07/21 02:14:30;;;;;;;19.05;11.35;;;;;;;;;;5014451;28;20025;-69
2021/07/21 02:16:57;;;;;;;23.58;11.23;;;;;;;;;;5020475;28;20365;-68
2021/07/21 02:19:23;;;;;;;21.90;10.98;;;;;;;;;;5019675;28;20034;-68
2021/07/21 02:21:48;;;;;;;20.15;12.40;;;;;;;;;;5011600;28;20530;-68
2021/07/21 02:24:13;;;;;;;19.73;11.90;;;;;;;;;;5017004;28;20040;-70
2021/07/21 02:26:39;;;;;;;22.17;11.85;;;;;;;;;;5015292;28;20029;-69
2021/07/21 02:29:04;;;;;;;18.52;10.40;;;;;;;;;;5017678;28;20029;-69
2021/07/21 02:31:31;;;;;;;18.58;11.48;;;;;;;;;;5011904;28;20514;-69
2021/07/21 02:33:58;;;;;;;23.38;12.98;;;;;;;;;;5011520;28;20057;-69
2021/07/21 02:36:24;;;;;;;19.92;11.68;;;;;;;;;;5016534;28;20057;-67
2021/07/21 02:38:49;;;;;;;19.40;11.57;;;;;;;;;;5013555;28;20026;-68
2021/07/21 02:41:15;;;;;;;21.77;11.98;;;;;;;;;;5012385;28;20393;-68
2021/07/21 02:43:40;;;;;;;20.05;11.73;;;;;;;;;;5011133;28;20524;-68
2021/07/21 02:46:06;;;;;;;19.45;11.57;;;;;;;;;;5014879;28;20017;-68
2021/07/21 02:48:31;;;;;;;20.00;11.57;;;;;;;;;;5011263;28;20034;-67
2021/07/21 02:50:58;;;;;;;18.45;11.05;;;;;;;;;;5008352;28;20029;-68
2021/07/21 02:53:26;;;;;;;22.38;11.77;;;;;;;;;;5015151;28;20059;-68
2021/07/21 02:55:52;;;;;;;19.02;10.65;;;;;;;;;;5011394;28;20030;-68
2021/07/21 02:58:17;;;;;;;19.63;11.73;;;;;;;;;;5020596;28;20082;-68
2021/07/21 03:00:43;;;;;;;21.52;11.40;;;;;;;;;;5017859;28;20021;-69
2021/07/21 03:03:09;;;;;;;21.50;11.75;;;;;;;;;;5030621;28;20303;-69
2021/07/21 03:05:35;;;;;;;20.73;11.43;;;;;;;;;;5014527;28;20502;-69
2021/07/21 03:08:01;;;;;;;21.00;11.90;;;;;;;;;;5015730;28;20025;-68
2021/07/21 03:10:27;;;;;;;19.90;11.07;;;;;;;;;;5014109;28;20022;-68
2021/07/21 03:13:01;;;;;;;23.20;11.30;;;;;;;;;;5017048;28;20037;-67
2021/07/21 03:15:28;;;;;;;19.80;11.70;;;;;;;;;;5011155;28;20026;-68
2021/07/21 03:17:54;;;;;;;20.58;11.10;;;;;;;;;;5012054;28;20477;-69
2021/07/21 03:20:19;;;;;;;18.48;10.55;;;;;;;;;;5012080;28;20028;-68
2021/07/21 03:22:45;;;;;;;29.10;12.10;;;;;;;;;;5012297;28;20029;-69
2021/07/21 03:25:11;;;;;;;20.75;11.35;;;;;;;;;;5011724;28;20026;-68
2021/07/21 03:27:37;;;;;;;20.30;11.80;;;;;;;;;;5008708;28;20053;-69
2021/07/21 03:30:05;;;;;;;20.95;11.60;;;;;;;;;;5015826;28;20018;-69
2021/07/21 03:32:30;;;;;;;17.75;10.05;;;;;;;;;;5005859;28;20022;-69
2021/07/21 03:34:56;;;;;;;19.00;10.93;;;;;;;;;;5019465;28;20040;-69
2021/07/21 03:37:21;;;;;;;18.02;11.25;;;;;;;;;;5014022;28;20453;-69
2021/07/21 03:39:52;;;;;;;18.88;10.68;;;;;;;;;;5011777;28;20652;-68
2021/07/21 03:42:18;;;;;;;19.52;11.13;;;;;;;;;;5010805;28;20153;-68
2021/07/21 03:44:43;;;;;;;20.42;11.43;;;;;;;;;;5005158;28;20430;-69
2021/07/21 03:47:08;;;;;;;18.52;10.15;;;;;;;;;;5014759;28;20021;-68
2021/07/21 03:49:34;;;;;;;19.23;11.30;;;;;;;;;;5015512;28;20149;-68
2021/07/21 03:51:59;;;;;;;21.83;12.27;;;;;;;;;;5011017;28;20519;-69
2021/07/21 03:54:25;;;;;;;15.95;10.23;;;;;;;;;;5014986;28;20406;-68
2021/07/21 03:56:50;;;;;;;20.63;11.48;;;;;;;;;;5012242;28;20339;-69
2021/07/21 03:59:17;;;;;;;19.83;11.35;;;;;;;;;;5009710;28;20109;-69
2021/07/21 04:01:43;;;;;;;21.73;11.75;;;;;;;;;;5013076;28;20029;-69
2021/07/21 04:04:09;;;;;;;17.60;10.40;;;;;;;;;;5008954;28;20033;-69
2021/07/21 04:06:35;;;;;;;18.58;11.30;;;;;;;;;;5019743;28;20033;-69
2021/07/21 04:09:03;;;;;;;24.50;11.65;;;;;;;;;;5009230;28;20041;-69
2021/07/21 04:11:29;;;;;;;18.90;10.10;;;;;;;;;;5023585;28;20022;-69
2021/07/21 04:13:54;;;;;;;20.20;11.13;;;;;;;;;;5019856;28;20107;-69
2021/07/21 04:16:19;;;;;;;18.35;10.77;;;;;;;;;;5019103;28;20105;-70
2021/07/21 04:18:46;;;;;;;18.48;10.93;;;;;;;;;;5013889;28;20036;-68
2021/07/21 04:21:11;;;;;;;19.10;11.35;;;;;;;;;;5018425;28;20577;-70
2021/07/21 04:23:38;;;;;;;19.17;10.95;;;;;;;;;;5019032;28;20026;-68
2021/07/21 04:26:03;;;;;;;22.17;12.10;;;;;;;;;;5013763;28;20022;-69
2021/07/21 04:28:29;;;;;;;18.77;10.77;;;;;;;;;;5011390;28;20037;-68
2021/07/21 04:30:54;;;;;;;19.13;10.10;;;;;;;;;;5015021;28;20017;-69
2021/07/21 04:33:20;;;;;;;16.95;10.18;;;;;;;;;;5011937;28;20149;-69
2021/07/21 04:35:47;;;;;;;15.88;9.45;;;;;;;;;;5026925;28;20029;-69
2021/07/21 04:38:13;;;;;;;16.92;10.90;;;;;;;;;;5013967;28;20060;-68
2021/07/21 04:40:43;;;;;;;17.45;9.45;;;;;;;;;;5011843;28;20465;-69
2021/07/21 04:43:08;;;;;;;20.52;11.07;;;;;;;;;;5011281;28;20494;-69
2021/07/21 04:45:34;;;;;;;16.38;9.63;;;;;;;;;;5021210;28;20026;-67
2021/07/21 04:47:59;;;;;;;15.90;9.65;;;;;;;;;;5027206;28;20033;-68
2021/07/21 04:50:24;;;;;;;17.70;10.48;;;;;;;;;;5017951;28;20018;-68
2021/07/21 04:52:49;;;;;;;19.85;10.00;;;;;;;;;;5012056;28;20033;-68
2021/07/21 04:55:15;;;;;;;14.70;9.13;;;;;;;;;;5010169;28;20017;-68
2021/07/21 04:57:42;;;;;;;16.80;9.20;;;;;;;;;;5012310;28;20032;-64
2021/07/21 05:00:08;;;;;;;14.27;9.43;;;;;;;;;;5020550;28;20458;-64
2021/07/21 05:02:33;;;;;;;17.13;9.82;;;;;;;;;;5019794;28;20116;-65
2021/07/21 05:04:58;;;;;;;15.27;9.30;;;;;;;;;;5019855;28;20062;-64
2021/07/21 05:07:23;;;;;;;13.63;8.47;;;;;;;;;;5025558;28;20276;-64
2021/07/21 05:09:48;;;;;;;14.23;8.27;;;;;;;;;;5013244;28;20403;-64
2021/07/21 05:12:13;;;;;;;16.67;9.18;;;;;;;;;;5009626;28;20281;-64
2021/07/21 05:14:39;;;;;;;17.38;9.65;;;;;;;;;;5014478;28;20022;-64
2021/07/21 05:17:04;;;;;;;15.87;10.27;;;;;;;;;;5012316;28;20269;-65
2021/07/21 05:19:29;;;;;;;18.03;11.63;;;;;;;;;;5008586;28;20273;-63
2021/07/21 05:21:54;;;;;;;19.02;10.77;;;;;;;;;;5016056;28;20395;-63
2021/07/21 05:24:20;;;;;;;17.48;9.60;;;;;;;;;;5012984;28;20120;-63
2021/07/21 05:26:47;;;;;;;15.75;9.23;;;;;;;;;;5020941;28;20112;-64
2021/07/21 05:29:12;;;;;;;18.80;10.07;;;;;;;;;;5010533;28;20385;-64
2021/07/21 05:31:37;;;;;;;16.17;10.40;;;;;;;;;;5024298;28;20021;-65
2021/07/21 05:34:03;;;;;;;17.75;9.60;;;;;;;;;;5016511;28;20060;-63
2021/07/21 05:36:33;;;;;;;15.33;9.67;;;;;;;;;;5012812;28;20386;-64
2021/07/21 05:38:58;;;;;;;18.95;10.57;;;;;;;;;;5009490;28;20690;-62
2021/07/21 05:41:23;;;;;;;19.03;9.73;;;;;;;;;;5028385;28;20047;-61
2021/07/21 05:43:49;;;;;;;17.50;10.50;;;;;;;;;;5014966;28;20348;-63
2021/07/21 05:46:14;;;;;;;16.15;10.20;;;;;;;;;;5017230;28;20045;-63
2021/07/21 05:48:39;;;;;;;14.93;9.60;;;;;;;;;;5016939;28;20030;-63
2021/07/21 05:51:04;;;;;;;15.00;9.55;;;;;;;;;;5029621;28;20358;-63
2021/07/21 05:53:30;;;;;;;15.23;9.70;;;;;;;;;;5012390;28;20052;-64
2021/07/21 05:55:55;;;;;;;17.75;10.07;;;;;;;;;;5015328;28;20328;-65
2021/07/21 05:58:21;;;;;;;14.57;9.63;;;;;;;;;;5014513;28;20025;-64
2021/07/21 06:00:46;;;;;;;15.90;10.27;;;;;;;;;;5016742;28;20022;-64
2021/07/21 06:03:12;;;;;;;13.40;9.10;;;;;;;;;;5025060;28;20045;-64
2021/07/21 06:05:38;;;;;;;20.83;10.75;;;;;;;;;;5015321;28;20816;-63
2021/07/21 06:08:04;;;;;;;15.45;10.45;;;;;;;;;;5019494;28;20029;-63
2021/07/21 06:10:29;;;;;;;16.15;10.65;;;;;;;;;;5021985;28;20500;-64
2021/07/21 06:12:54;;;;;;;17.60;10.23;;;;;;;;;;5029449;28;20488;-63
2021/07/21 06:15:25;;;;;;;17.63;10.23;;;;;;;;;;5029809;28;20013;-63
2021/07/21 06:17:50;;;;;;;17.02;11.65;;;;;;;;;;5022654;28;20044;-63
2021/07/21 06:20:15;;;;;;;16.67;10.30;;;;;;;;;;5015455;28;20022;-64
2021/07/21 06:22:42;;;;;;;18.53;11.67;;;;;;;;;;5013909;28;20042;-63
2021/07/21 06:25:08;;;;;;;18.20;11.02;;;;;;;;;;5022586;28;20351;-64
2021/07/21 06:27:34;;;;;;;19.80;10.98;;;;;;;;;;5012297;28;20113;-64
2021/07/21 06:29:59;;;;;;;16.52;10.50;;;;;;;;;;5020727;28;20038;-64
2021/07/21 06:32:24;;;;;;;17.88;10.07;;;;;;;;;;5016872;28;20083;-64
2021/07/21 06:34:49;;;;;;;17.50;10.03;;;;;;;;;;5019673;28;20517;-64
2021/07/21 06:37:15;;;;;;;19.53;11.00;;;;;;;;;;5018698;28;20045;-63
2021/07/21 06:39:40;;;;;;;20.07;10.43;;;;;;;;;;5022186;28;20667;-64
2021/07/21 06:42:05;;;;;;;16.63;10.00;;;;;;;;;;5018653;28;20297;-64
2021/07/21 06:44:30;;;;;;;14.90;9.60;;;;;;;;;;5023768;28;20049;-64
2021/07/21 06:46:55;;;;;;;17.70;10.33;;;;;;;;;;5018758;28;20034;-63
2021/07/21 06:49:20;;;;;;;19.07;12.17;;;;;;;;;;5037211;28;20400;-64
2021/07/21 06:51:46;;;;;;;23.55;11.90;;;;;;;;;;5016973;28;20272;-64
2021/07/21 06:54:11;;;;;;;23.60;11.13;;;;;;;;;;5017473;28;20031;-63
2021/07/21 06:56:36;;;;;;;17.37;10.97;;;;;;;;;;5016692;28;20044;-63
2021/07/21 06:59:01;;;;;;;18.03;10.03;;;;;;;;;;5013723;28;20788;-64
2021/07/21 07:01:27;;;;;;;15.70;10.45;;;;;;;;;;5026630;28;20284;-65
2021/07/21 07:03:52;;;;;;;16.73;9.73;;;;;;;;;;5012956;28;20038;-63
2021/07/21 07:06:17;;;;;;;17.70;10.23;;;;;;;;;;5022561;28;20310;-62
2021/07/21 07:08:43;;;;;;;15.23;9.48;;;;;;;;;;5009316;28;20037;-65
2021/07/21 07:11:09;;;;;;;12.88;9.05;;;;;;;;;;5015045;28;20441;-64
2021/07/21 07:13:35;;;;;;;17.70;9.95;;;;;;;;;;5026360;28;20022;-63
2021/07/21 07:16:00;;;;;;;16.98;9.77;;;;;;;;;;5005047;28;20033;-65
2021/07/21 07:18:26;;;;;;;14.35;8.68;;;;;;;;;;5009066;28;20115;-65
2021/07/21 07:20:52;;;;;;;15.45;9.07;;;;;;;;;;5014470;28;20373;-64
2021/07/21 07:23:17;;;;;;;16.00;9.13;;;;;;;;;;5011647;28;20041;-64
2021/07/21 07:25:42;;;;;;;13.25;8.60;;;;;;;;;;5012748;28;20385;-66
2021/07/21 07:28:08;;;;;;;18.65;9.55;;;;;;;;;;5010751;28;20036;-65
2021/07/21 07:30:34;;;;;;;14.43;8.93;;;;;;;;;;5009244;28;20156;-66
2021/07/21 07:32:59;;;;;;;13.82;9.02;;;;;;;;;;5018560;28;20163;-65
2021/07/21 07:35:25;;;;;;;18.50;9.02;;;;;;;;;;5015336;28;20109;-65
2021/07/21 07:37:50;;;;;;;17.80;8.65;;;;;;;;;;5005801;28;20033;-66
2021/07/21 07:40:15;;;;;;;14.80;8.53;;;;;;;;;;5016307;28;20037;-65
2021/07/21 07:42:40;;;;;;;17.75;8.70;;;;;;;;;;5033560;28;20045;-66
2021/07/21 07:45:06;;;;;;;17.83;10.38;;;;;;;;;;5010747;28;20461;-65
2021/07/21 07:47:32;;;;;;;15.50;8.60;;;;;;;;;;5009382;28;20101;-66
2021/07/21 07:49:58;;;;;;;18.90;9.23;;;;;;;;;;5009719;28;20092;-65
2021/07/21 07:52:23;;;;;;;13.30;8.60;;;;;;;;;;5012126;28;20465;-65
2021/07/21 07:54:49;;;;;;;13.87;8.03;;;;;;;;;;5009592;28;20477;-66
2021/07/21 07:57:14;;;;;;;13.65;8.40;;;;;;;;;;5015589;28;20350;-66
2021/07/21 07:59:39;;;;;;;14.15;7.22;;;;;;;;;;5022845;28;20052;-67
2021/07/21 08:02:05;;;;;;;14.55;7.45;;;;;;;;;;5013268;28;20029;-66
2021/07/21 08:04:30;;;;;;;19.95;7.95;;;;;;;;;;5008903;28;20033;-66
2021/07/21 08:06:55;;;;;;;17.38;8.75;;;;;;;;;;5015534;28;20440;-67
2021/07/21 08:09:20;;;;;;;14.90;7.40;;;;;;;;;;5011535;28;20489;-66
2021/07/21 08:11:56;;;;;;;13.83;7.50;;;;;;;;;;5014563;28;20387;-67
2021/07/21 08:14:21;;;;;;;14.20;7.78;;;;;;;;;;5020189;28;20272;-67
2021/07/21 08:16:47;;;;;;;14.30;7.32;;;;;;;;;;5009883;28;20857;-67
2021/07/21 08:19:12;;;;;;;12.13;7.78;;;;;;;;;;5009279;28;20029;-65
2021/07/21 08:21:38;;;;;;;13.27;7.65;;;;;;;;;;5023839;28;20044;-66
2021/07/21 08:24:03;;;;;;;13.43;7.22;;;;;;;;;;5027855;28;20124;-66
2021/07/21 08:26:29;;;;;;;15.07;8.52;;;;;;;;;;5019372;28;20017;-66
2021/07/21 08:28:54;;;;;;;11.82;6.60;;;;;;;;;;5013282;28;20033;-67
2021/07/21 08:31:19;;;;;;;15.05;7.88;;;;;;;;;;5008695;28;20468;-66
2021/07/21 08:33:44;;;;;;;14.88;6.32;;;;;;;;;;5013158;28;20525;-67
2021/07/21 08:36:10;;;;;;;13.27;6.93;;;;;;;;;;5027578;28;20021;-67
2021/07/21 08:38:36;;;;;;;11.82;7.00;;;;;;;;;;5025335;28;20080;-66
2021/07/21 08:41:02;;;;;;;11.83;7.43;;;;;;;;;;5020833;28;20021;-66
2021/07/21 08:43:27;;;;;;;12.07;7.60;;;;;;;;;;5024853;28;20351;-67
2021/07/21 08:45:53;;;;;;;15.80;7.88;;;;;;;;;;5008992;28;20026;-67
2021/07/21 08:48:18;;;;;;;13.35;7.10;;;;;;;;;;5017381;28;20109;-67
2021/07/21 08:50:44;;;;;;;15.20;7.43;;;;;;;;;;5026185;28;20147;-67
2021/07/21 08:53:10;;;;;;;11.55;7.00;;;;;;;;;;5024897;28;20029;-66
2021/07/21 08:55:35;;;;;;;13.57;7.35;;;;;;;;;;5031533;28;20020;-67
2021/07/21 08:58:01;;;;;;;15.23;8.20;;;;;;;;;;5023535;28;20108;-67
2021/07/21 09:00:26;;;;;;;15.13;8.20;;;;;;;;;;5020437;28;20025;-67
2021/07/21 09:02:51;;;;;;;13.73;6.78;;;;;;;;;;5031311;28;20782;-66
2021/07/21 09:05:17;;;;;;;13.55;8.65;;;;;;;;;;5024936;28;20376;-67
2021/07/21 09:07:42;;;;;;;11.43;6.80;;;;;;;;;;5012043;28;20119;-66
2021/07/21 09:10:12;;;;;;;11.68;6.75;;;;;;;;;;5012241;28;20030;-66
2021/07/21 09:12:42;;;;;;;14.95;7.28;;;;;;;;;;5018072;28;20014;-67
2021/07/21 09:15:08;;;;;;;14.70;7.38;;;;;;;;;;5012206;28;20041;-67
2021/07/21 09:17:33;;;;;;;14.90;7.72;;;;;;;;;;5017855;28;20120;-67
2021/07/21 09:19:58;;;;;;;11.48;7.30;;;;;;;;;;5012369;28;20061;-67
2021/07/21 09:22:25;;;;;;;17.65;10.10;;;;;;;;;;5025658;28;20028;-66
2021/07/21 09:25:09;;;;;;;12.23;7.25;;;;;;;;;;5030660;28;20030;-66
2021/07/21 09:27:34;;;;;;;12.60;6.95;;;;;;;;;;5018559;28;20171;-66
2021/07/21 09:29:59;;;;;;;13.50;7.30;;;;;;;;;;5011346;28;20296;-67
2021/07/21 09:32:24;;;;;;;13.98;6.90;;;;;;;;;;5017196;28;20283;-66
2021/07/21 09:34:53;;;;;;;12.37;7.30;;;;;;;;;;5016038;28;20041;-66
2021/07/21 09:37:19;;;;;;;11.48;7.20;;;;;;;;;;5023837;28;20339;-66
2021/07/21 09:39:45;;;;;;;12.07;7.50;;;;;;;;;;5030042;28;20073;-66
2021/07/21 09:42:11;;;;;;;14.32;7.25;;;;;;;;;;5026985;28;20517;-66
2021/07/21 09:44:41;;;;;;;18.23;8.48;;;;;;;;;;5010394;28;20021;-67
2021/07/21 09:47:14;;;;;;;13.63;8.02;;;;;;;;;;5013619;28;20060;-67
2021/07/21 09:49:39;;;;;;;15.18;7.72;;;;;;;;;;5017296;28;20235;-66
2021/07/21 09:52:21;;;;;;;12.93;6.97;;;;;;;;;;5024464;28;20029;-66
2021/07/21 09:55:05;;;;;;;17.02;8.32;;;;;;;;;;5018179;28;20021;-67
2021/07/21 09:57:30;;;;;;;12.25;6.95;;;;;;;;;;5023779;28;20504;-67
2021/07/21 09:59:57;;;;;;;14.43;6.75;;;;;;;;;;5021517;28;20030;-66
2021/07/21 10:02:25;;;;;;;16.23;7.78;;;;;;;;;;5013153;28;20385;-67
2021/07/21 10:04:50;;;;;;;14.63;8.85;;;;;;;;;;5016130;28;20458;-67
2021/07/21 10:10:14;;;;;;;14.50;8.25;;;;;;;;;;5010897;28;20061;-66
2021/07/21 10:12:39;;;;;;;14.23;7.15;;;;;;;;;;5010770;28;20017;-66
2021/07/21 10:15:05;;;;;;;13.10;7.68;;;;;;;;;;5010008;28;20040;-67
2021/07/21 10:17:30;;;;;;;12.30;7.43;;;;;;;;;;5010847;28;20809;-67
2021/07/21 10:19:56;;;;;;;13.65;7.63;;;;;;;;;;5010235;28;20029;-66
2021/07/21 10:22:21;;;;;;;16.10;8.60;;;;;;;;;;5014877;28;20036;-67
2021/07/21 10:24:46;;;;;;;14.27;7.90;;;;;;;;;;5026972;28;20041;-66
2021/07/21 10:27:12;;;;;;;13.25;8.27;;;;;;;;;;5013418;28;20080;-66
2021/07/21 10:29:37;;;;;;;15.20;7.72;;;;;;;;;;5023271;28;20450;-68
2021/07/21 10:32:03;;;;;;;13.90;8.50;;;;;;;;;;5024533;28;20067;-66
2021/07/21 10:34:28;;;;;;;11.82;7.28;;;;;;;;;;5026178;28;20040;-67
2021/07/21 10:36:54;;;;;;;17.48;8.20;;;;;;;;;;5013672;28;20497;-65
2021/07/21 10:39:22;;;;;;;16.63;8.82;;;;;;;;;;5018851;28;20025;-67
2021/07/21 10:41:49;;;;;;;13.25;7.60;;;;;;;;;;5027255;28;20104;-67
2021/07/21 10:44:15;;;;;;;12.50;7.78;;;;;;;;;;5011874;28;20050;-67
2021/07/21 10:46:44;;;;;;;15.73;8.93;;;;;;;;;;5018052;28;20029;-67
2021/07/21 10:49:17;;;;;;;12.80;7.40;;;;;;;;;;5010171;28;20487;-67
2021/07/21 10:54:31;;;;;;;15.33;9.80;;;;;;;;;;5010452;28;20108;-66
2021/07/21 11:00:01;;;;;;;13.07;8.85;;;;;;;;;;5013454;28;20209;-66
2021/07/21 11:02:29;;;;;;;14.10;7.97;;;;;;;;;;5000448;28;20097;-68
2021/07/21 11:04:54;;;;;;;14.82;7.95;;;;;;;;;;5012216;28;20026;-67
2021/07/21 11:07:40;;;;;;;20.10;10.50;;;;;;;;;;5010578;28;20028;-67
2021/07/21 11:10:05;;;;;;;16.60;8.80;;;;;;;;;;5008022;28;20276;-65
2021/07/21 11:12:31;;;;;;;15.73;8.52;;;;;;;;;;5011718;28;20034;-67
2021/07/21 11:14:56;;;;;;;11.65;7.10;;;;;;;;;;5008526;28;20402;-67
2021/07/21 11:17:21;;;;;;;14.95;8.63;;;;;;;;;;5008199;28;20024;-66
2021/07/21 11:19:47;;;;;;;12.03;7.63;;;;;;;;;;5007120;28;20018;-67
2021/07/21 11:22:17;;;;;;;15.27;8.93;;;;;;;;;;5015644;28;20272;-66
2021/07/21 11:25:03;;;;;;;16.50;8.18;;;;;;;;;;5007003;28;20124;-67
2021/07/21 11:27:45;;;;;;;13.52;8.18;;;;;;;;;;5003264;28;20018;-66
2021/07/21 11:30:29;;;;;;;14.60;8.70;;;;;;;;;;5008595;28;20034;-67
2021/07/21 11:32:54;;;;;;;16.40;10.90;;;;;;;;;;5009610;28;20578;-66
2021/07/21 11:35:38;;;;;;;15.27;9.40;;;;;;;;;;5014614;28;20025;-66
2021/07/21 11:38:15;;;;;;;12.73;7.97;;;;;;;;;;5024849;28;21066;-66
2021/07/21 11:40:43;;;;;;;17.50;8.68;;;;;;;;;;5027040;28;20311;-67
2021/07/21 11:43:41;;;;;;;14.88;8.18;;;;;;;;;;5022106;28;20066;-66
2021/07/21 11:46:08;;;;;;;14.88;8.25;;;;;;;;;;4968908;28;20031;-67
2021/07/21 11:48:33;;;;;;;13.05;8.32;;;;;;;;;;4965620;28;20216;-67
2021/07/21 11:50:59;;;;;;;14.98;9.93;;;;;;;;;;4968456;28;20117;-66
2021/07/21 11:53:24;;;;;;;16.98;8.77;;;;;;;;;;4973182;28;20042;-66
2021/07/21 11:55:50;;;;;;;15.00;8.52;;;;;;;;;;4971974;28;20479;-66
2021/07/21 11:58:15;;;;;;;16.38;10.15;;;;;;;;;;4975397;28;20064;-66
2021/07/21 12:00:46;;;;;;;15.80;7.93;;;;;;;;;;4972650;28;20093;-67
2021/07/21 12:03:12;;;;;;;16.10;9.52;;;;;;;;;;4972714;28;20441;-67
2021/07/21 12:05:37;;;;;;;15.30;8.68;;;;;;;;;;4967292;28;20137;-67
2021/07/21 12:08:05;;;;;;;14.27;9.07;;;;;;;;;;4970315;28;20062;-66
2021/07/21 12:10:32;;;;;;;15.48;10.23;;;;;;;;;;4969462;28;20277;-64
2021/07/21 12:13:05;;;;;;;11.82;7.38;;;;;;;;;;4985276;28;20042;-67
2021/07/21 12:15:30;;;;;;;13.52;8.35;;;;;;;;;;4979650;28;20110;-64
2021/07/21 12:18:06;;;;;;;12.77;7.95;;;;;;;;;;4971665;28;20058;-64
2021/07/21 12:20:31;;;;;;;13.43;8.45;;;;;;;;;;4973519;28;20106;-64
2021/07/21 12:22:57;;;;;;;14.93;9.18;;;;;;;;;;5019011;28;20434;-65
2021/07/21 12:25:23;;;;;;;13.77;8.75;;;;;;;;;;5010535;28;20022;-64
2021/07/21 12:27:49;;;;;;;13.98;7.97;;;;;;;;;;5013178;28;20038;-64
2021/07/21 12:30:18;;;;;;;16.00;10.23;;;;;;;;;;5018452;28;20034;-64
2021/07/21 12:32:45;;;;;;;17.27;9.25;;;;;;;;;;5019388;28;20030;-65
2021/07/21 12:35:11;;;;;;;18.50;10.70;;;;;;;;;;5029840;28;20037;-65
2021/07/21 12:37:41;;;;;;;13.10;7.30;;;;;;;;;;5019415;28;20018;-65
2021/07/21 12:40:10;;;;;;;12.68;8.02;;;;;;;;;;5012821;28;20095;-65
2021/07/21 12:42:36;;;;;;;14.90;8.65;;;;;;;;;;5016472;28;20553;-65
2021/07/21 12:45:06;;;;;;;13.45;7.75;;;;;;;;;;5012050;28;20034;-65
2021/07/21 12:47:31;;;;;;;;;;;;;;;;;;5025220;28;20116;-65
2021/07/21 12:50:01;;;;;;;14.60;8.82;;;;;;;;;;5031448;28;19992;-66
2021/07/21 12:52:34;;;;;;;11.30;7.60;;;;;;;;;;5033270;28;20441;-64
2021/07/21 12:55:00;;;;;;;14.43;8.35;;;;;;;;;;5028040;28;20365;-65
2021/07/21 12:57:32;;;;;;;12.93;7.85;;;;;;;;;;5005486;28;20022;-66
2021/07/21 13:00:03;;;;;;;15.00;8.05;;;;;;;;;;5021853;28;20120;-65
2021/07/21 13:02:29;;;;;;;14.88;8.40;;;;;;;;;;5004937;28;20053;-64
2021/07/21 13:04:54;;;;;;;15.83;8.13;;;;;;;;;;5010834;28;20547;-64
2021/07/21 13:07:21;;;;;;;16.97;10.03;;;;;;;;;;5016550;28;20279;-65
2021/07/21 13:09:49;;;;;;;14.38;9.40;;;;;;;;;;5018893;28;20276;-65
2021/07/21 13:12:15;;;;;;;16.92;9.35;;;;;;;;;;5028637;28;20025;-65
2021/07/21 13:14:40;;;;;;;13.52;7.75;;;;;;;;;;5014115;28;20037;-65
2021/07/21 13:17:11;;;;;;;15.27;9.52;;;;;;;;;;5022631;28;20108;-65
2021/07/21 13:19:36;;;;;;;13.50;8.07;;;;;;;;;;5030367;28;20017;-65
2021/07/21 13:22:02;;;;;;;13.63;8.75;;;;;;;;;;5022249;28;20496;-64
2021/07/21 13:24:29;;;;;;;13.00;8.20;;;;;;;;;;5020831;28;20347;-66
2021/07/21 13:27:04;;;;;;;10.98;7.57;;;;;;;;;;5010117;28;20374;-65
2021/07/21 13:29:30;;;;;;;13.32;7.93;;;;;;;;;;5014828;28;20088;-65
2021/07/21 13:31:56;;;;;;;13.18;8.25;;;;;;;;;;5010196;28;20111;-65
2021/07/21 13:34:21;;;;;;;13.00;8.38;;;;;;;;;;5026240;28;20106;-65
2021/07/21 13:36:47;;;;;;;16.80;8.73;;;;;;;;;;5029536;28;20030;-64
2021/07/21 13:39:12;;;;;;;14.18;7.97;;;;;;;;;;5029615;28;20279;-64
2021/07/21 13:41:49;;;;;;;12.67;7.63;;;;;;;;;;5021868;28;20484;-64
2021/07/21 13:44:19;;;;;;;14.35;7.60;;;;;;;;;;5010948;28;20364;-66
2021/07/21 13:46:47;;;;;;;14.48;7.60;;;;;;;;;;5026832;28;20010;-65
2021/07/21 13:49:12;;;;;;;13.77;9.32;;;;;;;;;;5014422;28;20065;-65
2021/07/21 13:51:45;;;;;;;12.25;8.05;;;;;;;;;;5011413;28;20426;-67
2021/07/21 13:54:11;;;;;;;15.57;8.52;;;;;;;;;;5027375;28;20029;-65
2021/07/21 13:56:37;;;;;;;12.15;8.07;;;;;;;;;;5021093;28;20091;-65
2021/07/21 13:59:02;;;;;;;15.27;8.80;;;;;;;;;;5020010;28;20461;-65
2021/07/21 14:01:28;;;;;;;11.82;7.75;;;;;;;;;;5030153;28;20264;-64
2021/07/21 14:03:58;;;;;;;15.95;7.80;;;;;;;;;;5020768;28;20072;-65
2021/07/21 14:06:23;;;;;;;14.32;8.05;;;;;;;;;;5011604;28;20029;-65
2021/07/21 14:08:48;;;;;;;15.73;8.50;;;;;;;;;;5018470;28;20056;-65
2021/07/21 14:11:13;;;;;;;13.40;9.10;;;;;;;;;;5025734;28;20025;-64
2021/07/21 14:13:39;;;;;;;13.40;7.80;;;;;;;;;;5029915;28;20048;-66
2021/07/21 14:16:04;;;;;;;14.23;8.07;;;;;;;;;;5010652;28;20363;-64
2021/07/21 14:18:29;;;;;;;14.15;8.23;;;;;;;;;;5010304;28;20296;-64
2021/07/21 14:20:54;;;;;;;11.70;7.47;;;;;;;;;;5010804;28;20018;-64
2021/07/21 14:23:20;;;;;;;12.03;7.90;;;;;;;;;;5021768;28;20082;-64
2021/07/21 14:25:45;;;;;;;15.77;8.25;;;;;;;;;;5029590;28;20029;-64
2021/07/21 14:28:10;;;;;;;13.88;8.15;;;;;;;;;;5018766;28;20654;-64
2021/07/21 14:30:36;;;;;;;13.40;7.73;;;;;;;;;;5027563;28;20026;-64
2021/07/21 14:33:01;;;;;;;11.82;7.95;;;;;;;;;;5022775;28;20260;-65